createdAt,value
2023-01-06T00:01:32.983Z,5.87
2023-01-06T00:04:00.250Z,6.00
2023-01-06T00:06:29.080Z,4.83
2023-01-06T00:08:57.393Z,5.37
2023-01-06T00:11:25.076Z,5.63
2023-01-06T00:13:52.200Z,7.47
2023-01-06T00:16:20.747Z,7.07
2023-01-06T00:18:48.067Z,6.47
2023-01-06T00:21:15.829Z,7.50
2023-01-06T00:23:43.249Z,7.77
2023-01-06T00:26:10.827Z,7.17
2023-01-06T00:28:37.926Z,9.83
2023-01-06T00:31:13.777Z,7.00
2023-01-06T00:33:41.555Z,10.70
2023-01-06T00:36:09.846Z,8.63
2023-01-06T00:38:37.404Z,9.40
2023-01-06T00:41:29.823Z,9.23
2023-01-06T00:43:57.649Z,12.43
2023-01-06T00:46:28.883Z,13.33
2023-01-06T00:49:06.920Z,9.47
2023-01-06T00:51:36.705Z,9.70
2023-01-06T00:54:03.994Z,8.90
2023-01-06T00:56:31.090Z,8.90
2023-01-06T00:58:57.931Z,8.57
2023-01-06T01:01:24.900Z,8.57
2023-01-06T01:03:51.748Z,8.60
2023-01-06T01:06:18.592Z,11.70
2023-01-06T01:08:45.447Z,9.90
2023-01-06T01:11:51.527Z,10.23
2023-01-06T01:14:20.174Z,14.20
2023-01-06T01:16:47.268Z,9.10
2023-01-06T01:19:15.000Z,10.10
2023-01-06T01:21:41.883Z,11.87
2023-01-06T01:24:09.195Z,14.67
2023-01-06T01:26:36.071Z,14.47
2023-01-06T01:29:03.582Z,9.87
2023-01-06T01:31:30.808Z,8.83
2023-01-06T01:33:57.705Z,8.50
2023-01-06T01:36:24.749Z,11.33
2023-01-06T01:38:51.596Z,11.60
2023-01-06T01:41:24.966Z,7.80
2023-01-06T01:43:53.866Z,8.27
2023-01-06T01:46:41.035Z,10.80
2023-01-06T01:49:18.052Z,9.37
2023-01-06T01:51:48.092Z,10.10
2023-01-06T01:54:21.108Z,7.70
2023-01-06T01:56:52.641Z,12.27
2023-01-06T01:59:23.979Z,14.60
2023-01-06T02:01:51.644Z,7.00
2023-01-06T02:04:20.595Z,7.80
2023-01-06T02:06:50.494Z,8.40
2023-01-06T02:09:39.108Z,7.37
2023-01-06T02:12:06.742Z,7.07
2023-01-06T02:14:33.729Z,6.20
2023-01-06T02:17:39.559Z,6.53
2023-01-06T02:21:05.660Z,7.43
2023-01-06T02:23:54.245Z,6.37
2023-01-06T02:26:24.068Z,6.47
2023-01-06T02:28:50.865Z,6.00
2023-01-06T02:31:42.424Z,5.83
2023-01-06T02:34:21.248Z,5.83
2023-01-06T02:36:50.889Z,5.90
2023-01-06T02:39:26.327Z,8.50
2023-01-06T02:42:01.316Z,7.23
2023-01-06T02:44:38.739Z,6.90
2023-01-06T02:47:17.245Z,6.80
2023-01-06T02:50:05.148Z,7.13
2023-01-06T02:52:37.940Z,6.80
2023-01-06T02:55:14.800Z,7.80
2023-01-06T02:57:52.652Z,9.00
2023-01-06T03:00:34.708Z,7.23
2023-01-06T03:03:13.232Z,7.00
2023-01-06T03:05:43.621Z,6.90
2023-01-06T03:08:17.747Z,6.57
2023-01-06T03:10:47.416Z,6.13
2023-01-06T03:13:45.292Z,6.50
2023-01-06T03:16:12.456Z,6.73
2023-01-06T03:18:42.386Z,6.67
2023-01-06T03:21:13.469Z,8.07
2023-01-06T03:23:41.383Z,7.93
2023-01-06T03:26:09.003Z,8.83
2023-01-06T03:28:35.988Z,7.33
2023-01-06T03:31:21.901Z,8.17
2023-01-06T03:34:15.060Z,8.57
2023-01-06T03:37:08.487Z,8.73
2023-01-06T03:39:58.046Z,11.73
2023-01-06T03:42:54.028Z,9.17
2023-01-06T03:45:44.978Z,8.47
2023-01-06T03:48:32.041Z,8.63
2023-01-06T03:51:30.049Z,15.33
2023-01-06T03:54:38.161Z,8.10
2023-01-06T03:57:08.002Z,11.57
2023-01-06T03:59:42.949Z,7.00
2023-01-06T04:02:10.689Z,11.13
2023-01-06T04:04:38.144Z,7.70
2023-01-06T04:07:05.450Z,10.37
2023-01-06T04:09:32.279Z,8.83
2023-01-06T04:12:17.658Z,10.20
2023-01-06T04:14:44.556Z,7.03
2023-01-06T04:17:13.569Z,5.73
2023-01-06T04:19:40.589Z,6.23
2023-01-06T04:22:07.475Z,11.73
2023-01-06T04:24:34.339Z,5.73
2023-01-06T04:27:01.222Z,6.70
2023-01-06T04:29:28.173Z,4.63
2023-01-06T04:31:55.094Z,4.80
2023-01-06T04:34:21.910Z,4.70
2023-01-06T04:36:48.791Z,8.90
2023-01-06T04:39:15.679Z,4.77
2023-01-06T04:41:42.542Z,4.30
2023-01-06T04:44:09.341Z,4.43
2023-01-06T04:46:36.202Z,4.50
2023-01-06T04:49:03.354Z,4.60
2023-01-06T04:51:30.208Z,5.57
2023-01-06T04:53:57.145Z,4.13
2023-01-06T04:56:25.991Z,4.47
2023-01-06T04:58:57.719Z,4.73
2023-01-06T05:01:26.614Z,5.10
2023-01-06T05:03:53.794Z,5.53
2023-01-06T05:06:21.312Z,6.10
2023-01-06T05:08:48.591Z,5.60
2023-01-06T05:11:23.992Z,5.90
2023-01-06T05:13:51.351Z,5.10
2023-01-06T05:16:20.056Z,5.37
2023-01-06T05:18:47.295Z,5.73
2023-01-06T05:21:14.165Z,5.90
2023-01-06T05:23:42.012Z,6.10
2023-01-06T05:26:15.365Z,5.53
2023-01-06T05:28:42.232Z,5.77
2023-01-06T05:31:10.622Z,5.23
2023-01-06T05:33:37.828Z,4.80
2023-01-06T05:36:07.525Z,5.10
2023-01-06T05:38:34.970Z,4.60
2023-01-06T05:41:02.388Z,4.97
2023-01-06T05:43:29.852Z,5.10
2023-01-06T05:45:56.828Z,4.80
2023-01-06T05:48:28.036Z,4.60
2023-01-06T05:51:02.446Z,5.10
2023-01-06T05:53:32.575Z,5.10
2023-01-06T05:56:01.123Z,5.53
2023-01-06T05:58:28.149Z,5.20
2023-01-06T06:00:55.137Z,4.57
2023-01-06T06:03:22.086Z,4.70
2023-01-06T06:05:48.938Z,4.87
2023-01-06T06:08:16.149Z,5.40
2023-01-06T06:10:42.998Z,4.30
2023-01-06T06:13:09.852Z,4.80
2023-01-06T06:15:36.785Z,4.37
2023-01-06T06:18:03.945Z,4.00
2023-01-06T06:20:30.783Z,4.50
2023-01-06T06:22:57.632Z,4.37
2023-01-06T06:25:24.485Z,4.47
2023-01-06T06:27:51.351Z,7.33
2023-01-06T06:30:18.261Z,6.10
2023-01-06T06:32:45.200Z,5.67
2023-01-06T06:35:12.031Z,4.87
2023-01-06T06:37:38.956Z,4.47
2023-01-06T06:40:06.591Z,4.87
2023-01-06T06:42:33.501Z,4.53
2023-01-06T06:45:00.413Z,5.00
2023-01-06T06:47:27.273Z,4.80
2023-01-06T06:49:54.107Z,5.10
2023-01-06T06:52:20.964Z,5.30
2023-01-06T06:54:47.809Z,5.33
2023-01-06T06:57:14.680Z,5.27
2023-01-06T06:59:41.495Z,5.23
2023-01-06T07:02:09.397Z,4.93
2023-01-06T07:04:36.392Z,6.33
2023-01-06T07:07:03.363Z,6.37
2023-01-06T07:09:30.280Z,5.40
2023-01-06T07:11:57.130Z,5.97
2023-01-06T07:14:23.964Z,5.97
2023-01-06T07:16:50.857Z,6.63
2023-01-06T07:19:17.727Z,6.37
2023-01-06T07:21:44.709Z,5.67
2023-01-06T07:24:11.707Z,5.80
2023-01-06T07:26:38.559Z,6.20
2023-01-06T07:29:05.459Z,5.23
2023-01-06T07:31:32.351Z,7.40
2023-01-06T07:33:59.678Z,5.60
2023-01-06T07:36:26.470Z,5.03
2023-01-06T07:38:53.322Z,4.97
2023-01-06T07:41:20.208Z,5.20
2023-01-06T07:43:47.061Z,4.30
2023-01-06T07:46:13.895Z,3.90
2023-01-06T07:48:40.751Z,4.17
2023-01-06T07:51:07.547Z,3.67
2023-01-06T07:53:35.680Z,4.47
2023-01-06T07:56:02.523Z,5.20
2023-01-06T07:58:29.456Z,4.40
2023-01-06T08:00:56.326Z,5.10
2023-01-06T08:03:23.357Z,5.10
2023-01-06T08:05:50.270Z,5.70
2023-01-06T08:08:17.369Z,6.70
2023-01-06T08:10:44.249Z,7.23
2023-01-06T08:13:11.203Z,6.53
2023-01-06T08:15:38.604Z,6.97
2023-01-06T08:18:06.058Z,7.17
2023-01-06T08:20:34.176Z,5.97
2023-01-06T08:23:02.343Z,6.00
2023-01-06T08:25:29.237Z,5.43
2023-01-06T08:27:59.084Z,6.57
2023-01-06T08:30:26.105Z,6.17
2023-01-06T08:32:59.812Z,5.30
2023-01-06T08:35:27.760Z,4.30
2023-01-06T08:37:54.597Z,3.63
2023-01-06T08:40:21.485Z,3.60
2023-01-06T08:42:48.487Z,3.37
2023-01-06T08:45:15.933Z,3.30
2023-01-06T08:47:42.768Z,3.53
2023-01-06T08:50:09.652Z,3.07
2023-01-06T08:52:36.564Z,2.70
2023-01-06T08:55:03.541Z,2.93
2023-01-06T08:57:30.430Z,2.50
2023-01-06T08:59:57.285Z,3.00
2023-01-06T09:02:24.230Z,2.87
2023-01-06T09:04:51.107Z,2.50
2023-01-06T09:07:17.943Z,1.80
2023-01-06T09:09:44.800Z,2.97
2023-01-06T09:12:11.693Z,1.73
2023-01-06T09:14:38.576Z,1.77
2023-01-06T09:17:05.452Z,1.60
2023-01-06T09:19:32.341Z,1.73
2023-01-06T09:22:00.987Z,1.53
2023-01-06T09:24:27.960Z,1.70
2023-01-06T09:26:54.810Z,1.33
2023-01-06T09:29:21.901Z,1.60
2023-01-06T09:31:48.779Z,1.33
2023-01-06T09:34:15.759Z,1.30
2023-01-06T09:36:42.640Z,1.20
2023-01-06T09:39:09.566Z,1.40
2023-01-06T09:42:12.932Z,1.57
2023-01-06T09:44:57.268Z,1.23
2023-01-06T09:47:30.006Z,1.40
2023-01-06T09:50:13.842Z,1.60
2023-01-06T09:52:57.260Z,2.23
2023-01-06T09:55:38.774Z,1.40
2023-01-06T09:58:18.332Z,1.70
2023-01-06T10:00:52.711Z,1.73
2023-01-06T10:03:24.773Z,1.67
2023-01-06T10:06:10.510Z,1.83
2023-01-06T10:09:04.335Z,1.63
2023-01-06T10:11:46.208Z,2.00
2023-01-06T10:14:25.193Z,1.97
2023-01-06T10:17:01.300Z,1.90
2023-01-06T10:19:43.003Z,2.20
2023-01-06T10:22:22.749Z,2.00
2023-01-06T10:25:19.742Z,1.87
2023-01-06T10:28:17.742Z,1.50
2023-01-06T10:30:54.675Z,2.13
2023-01-06T10:33:28.073Z,2.93
2023-01-06T10:35:56.299Z,6.63
2023-01-06T10:38:31.905Z,2.00
2023-01-06T10:41:10.770Z,2.40
2023-01-06T10:43:37.734Z,5.23
2023-01-06T10:46:04.686Z,6.37
2023-01-06T10:48:33.799Z,2.17
2023-01-06T10:51:26.283Z,1.50
2023-01-06T10:53:53.172Z,1.50
2023-01-06T10:56:20.092Z,1.10
2023-01-06T10:58:52.875Z,1.40
2023-01-06T11:01:34.804Z,1.23
2023-01-06T11:04:11.744Z,1.63
2023-01-06T11:06:59.797Z,1.50
2023-01-06T11:09:33.978Z,1.40
2023-01-06T11:12:08.925Z,0.80
2023-01-06T11:14:36.484Z,3.03
2023-01-06T11:17:13.178Z,1.40
2023-01-06T11:19:42.635Z,1.60
2023-01-06T11:22:42.511Z,0.90
2023-01-06T11:25:21.434Z,0.80
2023-01-06T11:28:07.382Z,1.20
2023-01-06T11:30:40.422Z,1.20
2023-01-06T11:33:19.430Z,2.73
2023-01-06T11:35:46.533Z,0.80
2023-01-06T11:38:15.353Z,0.80
2023-01-06T11:40:45.014Z,1.40
2023-01-06T11:43:20.407Z,2.20
2023-01-06T11:45:53.565Z,1.10
2023-01-06T11:48:30.235Z,1.10
2023-01-06T11:51:03.136Z,1.70
2023-01-06T11:53:30.969Z,1.07
2023-01-06T11:56:05.260Z,0.80
2023-01-06T11:58:38.115Z,1.00
2023-01-06T12:01:17.484Z,0.90
2023-01-06T12:03:46.529Z,1.17
2023-01-06T12:06:13.368Z,1.03
2023-01-06T12:08:49.493Z,1.10
2023-01-06T12:11:43.727Z,0.80
2023-01-06T12:14:28.677Z,1.83
2023-01-06T12:16:58.807Z,1.60
2023-01-06T12:19:34.580Z,1.13
2023-01-06T12:22:02.935Z,2.20
2023-01-06T12:24:33.310Z,1.10
2023-01-06T12:27:04.002Z,1.97
2023-01-06T12:29:32.831Z,2.20
2023-01-06T12:32:02.389Z,0.90
2023-01-06T12:34:35.956Z,1.40
2023-01-06T12:37:24.055Z,1.20
2023-01-06T12:40:10.863Z,1.70
2023-01-06T12:43:06.821Z,1.27
2023-01-06T12:46:02.707Z,1.27
2023-01-06T12:48:53.101Z,1.60
2023-01-06T12:51:27.753Z,2.20
2023-01-06T12:54:04.561Z,1.60
2023-01-06T12:56:55.507Z,1.70
2023-01-06T12:59:25.314Z,1.50
2023-01-06T13:02:19.509Z,2.20
2023-01-06T13:05:23.156Z,1.80
2023-01-06T13:08:21.847Z,3.33
2023-01-06T13:11:16.223Z,1.27
2023-01-06T13:13:56.133Z,1.53
2023-01-06T13:16:43.374Z,1.50
2023-01-06T13:19:16.662Z,1.50
2023-01-06T13:21:45.342Z,1.53
2023-01-06T13:24:34.898Z,1.53
2023-01-06T13:27:11.657Z,7.10
2023-01-06T13:29:52.822Z,1.60
2023-01-06T13:32:42.252Z,1.60
2023-01-06T13:35:36.792Z,1.40
2023-01-06T13:38:27.465Z,1.37
2023-01-06T13:40:59.702Z,1.60
2023-01-06T13:43:31.666Z,1.57
2023-01-06T13:46:03.351Z,2.90
2023-01-06T13:48:33.309Z,2.00
2023-01-06T13:51:04.632Z,2.10
2023-01-06T13:53:38.556Z,1.60
2023-01-06T13:56:14.526Z,3.63
2023-01-06T13:58:46.056Z,1.60
2023-01-06T14:01:30.767Z,3.13
2023-01-06T14:04:32.667Z,1.60
2023-01-06T14:07:00.708Z,1.60
2023-01-06T14:09:28.372Z,2.70
2023-01-06T14:12:08.407Z,1.87
2023-01-06T14:14:38.689Z,1.90
2023-01-06T14:17:06.275Z,2.07
2023-01-06T14:19:38.699Z,1.80
2023-01-06T14:22:24.895Z,2.20
2023-01-06T14:24:55.459Z,1.63
2023-01-06T14:27:47.117Z,2.00
2023-01-06T14:30:31.935Z,2.00
2023-01-06T14:33:05.117Z,2.03
2023-01-06T14:35:44.110Z,2.03
2023-01-06T14:38:17.967Z,2.00
2023-01-06T14:41:16.091Z,2.00
2023-01-06T14:44:01.339Z,1.63
2023-01-06T14:47:11.491Z,1.60
2023-01-06T14:49:58.561Z,1.40
2023-01-06T14:52:36.173Z,1.50
2023-01-06T14:55:09.719Z,1.50
2023-01-06T14:57:39.075Z,1.80
2023-01-06T15:00:24.201Z,2.10
2023-01-06T15:02:52.932Z,1.67
2023-01-06T15:05:24.459Z,2.13
2023-01-06T15:08:04.818Z,1.63
2023-01-06T15:10:35.492Z,1.50
2023-01-06T15:13:03.451Z,1.60
2023-01-06T15:15:33.862Z,2.57
2023-01-06T15:18:02.479Z,1.57
2023-01-06T15:20:33.142Z,1.70
2023-01-06T15:23:00.737Z,1.40
2023-01-06T15:25:29.645Z,1.07
2023-01-06T15:27:57.634Z,1.60
2023-01-06T15:30:27.693Z,1.70
2023-01-06T15:32:55.991Z,1.20
2023-01-06T15:35:27.661Z,1.43
2023-01-06T15:38:11.238Z,1.10
2023-01-06T15:40:39.799Z,1.23
2023-01-06T15:43:10.081Z,1.30
2023-01-06T15:45:37.148Z,1.40
2023-01-06T15:48:20.933Z,1.80
2023-01-06T15:50:47.829Z,1.63
2023-01-06T15:53:24.817Z,1.83
2023-01-06T15:55:56.200Z,2.03
2023-01-06T15:58:32.768Z,2.23
2023-01-06T16:01:21.300Z,1.40
2023-01-06T16:03:55.510Z,2.00
2023-01-06T16:06:33.912Z,1.83
2023-01-06T16:09:19.509Z,2.63
2023-01-06T16:12:04.390Z,1.97
2023-01-06T16:14:32.408Z,2.73
2023-01-06T16:17:07.636Z,2.63
2023-01-06T16:19:36.686Z,2.17
2023-01-06T16:22:08.836Z,2.23
2023-01-06T16:24:35.881Z,2.03
2023-01-06T16:27:06.039Z,2.30
2023-01-06T16:29:35.309Z,2.33
2023-01-06T16:32:33.609Z,2.20
2023-01-06T16:35:11.602Z,2.43
2023-01-06T16:37:38.411Z,1.77
2023-01-06T16:40:05.839Z,1.80
2023-01-06T16:42:40.293Z,1.90
2023-01-06T16:45:07.528Z,2.70
2023-01-06T16:47:34.377Z,2.13
2023-01-06T16:50:24.215Z,1.70
2023-01-06T16:53:15.431Z,2.27
2023-01-06T16:55:43.406Z,2.20
2023-01-06T16:58:30.384Z,2.27
2023-01-06T17:01:05.068Z,2.63
2023-01-06T17:03:36.858Z,2.27
2023-01-06T17:06:04.332Z,1.67
2023-01-06T17:08:34.638Z,1.80
2023-01-06T17:11:07.076Z,1.57
2023-01-06T17:13:36.849Z,2.30
2023-01-06T17:16:21.359Z,2.07
2023-01-06T17:18:53.186Z,1.40
2023-01-06T17:21:24.690Z,2.40
2023-01-06T17:23:57.260Z,1.97
2023-01-06T17:26:24.587Z,2.13
2023-01-06T17:28:53.723Z,2.53
2023-01-06T17:31:30.956Z,2.40
2023-01-06T17:34:01.793Z,2.07
2023-01-06T17:36:36.759Z,2.80
2023-01-06T17:39:17.019Z,1.83
2023-01-06T17:41:43.994Z,2.27
2023-01-06T17:44:17.586Z,3.20
2023-01-06T17:46:45.961Z,24.33
2023-01-06T17:49:18.941Z,3.10
2023-01-06T17:51:47.014Z,4.63
2023-01-06T17:54:37.488Z,3.30
2023-01-06T17:57:16.290Z,2.63
2023-01-06T17:59:43.509Z,1.90
2023-01-06T18:02:19.439Z,2.37
2023-01-06T18:04:46.947Z,2.10
2023-01-06T18:07:14.173Z,3.00
2023-01-06T18:09:41.113Z,2.80
2023-01-06T18:12:15.928Z,2.60
2023-01-06T18:14:45.674Z,1.60
2023-01-06T18:17:27.657Z,2.00
2023-01-06T18:19:54.616Z,1.60
2023-01-06T18:22:25.555Z,1.70
2023-01-06T18:25:02.436Z,2.50
2023-01-06T18:27:34.655Z,1.70
2023-01-06T18:30:23.483Z,1.47
2023-01-06T18:32:51.971Z,2.47
2023-01-06T18:35:21.696Z,2.57
2023-01-06T18:37:49.137Z,2.33
2023-01-06T18:40:25.677Z,2.00
2023-01-06T18:42:53.938Z,1.70
2023-01-06T18:45:24.946Z,2.50
2023-01-06T18:48:02.296Z,1.50
2023-01-06T18:50:31.194Z,1.67
2023-01-06T18:53:02.368Z,3.00
2023-01-06T18:55:51.237Z,4.80
2023-01-06T18:58:30.234Z,4.03
2023-01-06T19:01:02.910Z,1.97
2023-01-06T19:03:31.728Z,1.90
2023-01-06T19:06:16.670Z,2.30
2023-01-06T19:08:46.321Z,2.30
2023-01-06T19:11:18.691Z,3.47
2023-01-06T19:13:49.305Z,2.83
2023-01-06T19:16:35.631Z,5.77
2023-01-06T19:19:08.524Z,1.60
2023-01-06T19:21:36.442Z,2.43
2023-01-06T19:24:28.172Z,2.40
2023-01-06T19:26:58.030Z,10.30
2023-01-06T19:29:29.743Z,9.57
2023-01-06T19:31:59.779Z,9.53
2023-01-06T19:34:26.992Z,6.77
2023-01-06T19:36:56.985Z,3.50
2023-01-06T19:39:32.726Z,2.43
2023-01-06T19:42:27.227Z,2.07
2023-01-06T19:44:58.505Z,2.10
2023-01-06T19:47:27.929Z,3.53
2023-01-06T19:49:59.921Z,1.93
2023-01-06T19:52:36.575Z,1.97
2023-01-06T19:55:19.173Z,2.40
2023-01-06T19:57:55.923Z,2.10
2023-01-06T20:00:26.115Z,3.20
2023-01-06T20:02:57.494Z,2.30
2023-01-06T20:05:28.060Z,1.83
2023-01-06T20:07:55.028Z,2.20
2023-01-06T20:10:21.984Z,1.80
2023-01-06T20:12:49.392Z,2.33
2023-01-06T20:15:16.517Z,5.60
2023-01-06T20:17:43.453Z,1.40
2023-01-06T20:20:10.978Z,2.00
2023-01-06T20:22:37.936Z,1.93
2023-01-06T20:25:05.017Z,2.43
2023-01-06T20:27:31.929Z,7.20
2023-01-06T20:29:58.851Z,7.23
2023-01-06T20:32:25.685Z,4.87
2023-01-06T20:34:52.536Z,2.67
2023-01-06T20:37:19.404Z,1.50
2023-01-06T20:39:46.365Z,1.67
2023-01-06T20:42:13.491Z,1.80
2023-01-06T20:44:40.513Z,1.93
2023-01-06T20:47:07.475Z,1.80
2023-01-06T20:49:34.549Z,2.27
2023-01-06T20:52:01.444Z,3.03
2023-01-06T20:54:28.265Z,3.90
2023-01-06T20:56:55.163Z,3.80
2023-01-06T20:59:22.040Z,1.93
2023-01-06T21:01:48.990Z,1.37
2023-01-06T21:04:15.921Z,3.00
2023-01-06T21:06:42.819Z,1.20
2023-01-06T21:09:09.680Z,2.10
2023-01-06T21:11:36.593Z,1.40
2023-01-06T21:14:03.455Z,1.83
2023-01-06T21:16:30.538Z,2.23
2023-01-06T21:19:00.297Z,1.70
2023-01-06T21:21:27.115Z,2.60
2023-01-06T21:23:53.970Z,4.80
2023-01-06T21:26:20.790Z,1.97
2023-01-06T21:28:47.651Z,2.23
2023-01-06T21:31:14.558Z,6.30
2023-01-06T21:33:41.405Z,1.90
2023-01-06T21:36:08.734Z,2.07
2023-01-06T21:38:37.455Z,2.90
2023-01-06T21:41:23.202Z,2.80
2023-01-06T21:43:50.053Z,2.97
2023-01-06T21:46:17.461Z,5.60
2023-01-06T21:48:44.468Z,2.90
2023-01-06T21:51:11.640Z,2.10
2023-01-06T21:53:39.182Z,2.60
2023-01-06T21:56:08.104Z,2.00
2023-01-06T21:58:35.330Z,3.43
2023-01-06T22:01:02.216Z,3.93
2023-01-06T22:03:29.136Z,5.53
2023-01-06T22:05:56.655Z,7.50
2023-01-06T22:08:23.664Z,9.73
2023-01-06T22:10:50.628Z,5.10
2023-01-06T22:13:20.652Z,3.00
2023-01-06T22:15:47.768Z,2.30
2023-01-06T22:18:14.934Z,2.30
2023-01-06T22:20:41.959Z,1.90
2023-01-06T22:23:13.995Z,1.90
2023-01-06T22:25:41.854Z,1.70
2023-01-06T22:28:08.663Z,5.90
2023-01-06T22:30:36.148Z,5.07
2023-01-06T22:33:03.108Z,3.30
2023-01-06T22:35:29.975Z,2.30
2023-01-06T22:37:57.123Z,1.77
2023-01-06T22:40:23.986Z,1.63
2023-01-06T22:42:50.799Z,1.30
2023-01-06T22:45:17.683Z,1.30
2023-01-06T22:47:44.641Z,2.13
2023-01-06T22:50:12.372Z,2.93
2023-01-06T22:52:39.263Z,2.27
2023-01-06T22:55:07.125Z,1.80
2023-01-06T22:57:33.964Z,2.00
2023-01-06T23:00:00.882Z,2.00
2023-01-06T23:02:27.950Z,2.10
2023-01-06T23:04:54.960Z,1.33
2023-01-06T23:07:22.120Z,1.20
2023-01-06T23:09:49.025Z,7.17
2023-01-06T23:12:15.868Z,1.00
2023-01-06T23:14:42.741Z,1.00
2023-01-06T23:17:12.083Z,1.10
2023-01-06T23:19:39.287Z,1.00
2023-01-06T23:22:06.170Z,0.93
2023-01-06T23:24:33.407Z,0.90
2023-01-06T23:27:00.901Z,1.03
2023-01-06T23:29:27.833Z,1.20
2023-01-06T23:31:54.862Z,5.40
2023-01-06T23:34:21.685Z,1.20
2023-01-06T23:36:49.605Z,1.60
2023-01-06T23:39:17.363Z,1.00
2023-01-06T23:41:44.535Z,0.93
2023-01-06T23:44:16.611Z,1.20
2023-01-06T23:46:44.354Z,1.27
2023-01-06T23:49:16.359Z,1.10
2023-01-06T23:51:43.812Z,1.20
2023-01-06T23:54:12.278Z,1.23
2023-01-06T23:56:40.154Z,1.00
2023-01-06T23:59:08.467Z,0.93
